EWG7NB EDDH-LEPA
Flight info
| Callsign | EWG7NB |
|---|---|
| Flight time | 2h 25m |
| Altitude | 23000 |
| Route | IDEKO8C IDEKO N850 PIROT/N0454F370 N850 XAROL/N0454F360 DCT BOMBI DCT GIGET DCT ABUKA DCT KRH DCT NATOR/N0455F370 DCT LUTIX DCT BENOT DCT NEMOS DCT GEVEA DCT INCUS DCT BALSI DCT RETNO DCT TUPOX DCT MTG DCT DIVKO DCT VATIR N852 VERSO L129 LUNIK |
| Aircraft | A320/M-SDE3FGHIRWY/LB1 |
Departure
| Time | 2026-05-07 13:42 |
|---|---|
| Airport | Hamburg Helmut Schmidt Airport (EDDH) |
Arrival
| Time | 2026-05-07 16:07 |
|---|---|
| Airport | Palma de Mallorca Airport (LEPA) |
| Time | Latitude | Longitude | Altitude | Speed | Heading |
|---|---|---|---|---|---|
| 2026-05-07 13:17 | 53.63331 | 10.00364 | 48 ft | 0 kts | 86° |
| 2026-05-07 13:29 | 53.63331 | 10.00357 | 48 ft | 2 kts | 86° |
| 2026-05-07 13:29 | 53.63330 | 10.00326 | 48 ft | 3 kts | 86° |
| 2026-05-07 13:29 | 53.63328 | 10.00292 | 47 ft | 3 kts | 88° |
| 2026-05-07 13:29 | 53.63330 | 10.00260 | 46 ft | 3 kts | 115° |
| 2026-05-07 13:30 | 53.63341 | 10.00236 | 45 ft | 3 kts | 159° |
| 2026-05-07 13:30 | 53.63352 | 10.00230 | 47 ft | 0 kts | 176° |
| 2026-05-07 13:33 | 53.63350 | 10.00230 | 47 ft | 1 kts | 176° |
| 2026-05-07 13:33 | 53.63329 | 10.00233 | 45 ft | 6 kts | 176° |
| 2026-05-07 13:34 | 53.63275 | 10.00240 | 48 ft | 9 kts | 175° |
| 2026-05-07 13:34 | 53.63130 | 10.00257 | 48 ft | 12 kts | 175° |
| 2026-05-07 13:34 | 53.63045 | 10.00240 | 47 ft | 13 kts | 213° |
| 2026-05-07 13:35 | 53.62966 | 10.00153 | 45 ft | 11 kts | 212° |
| 2026-05-07 13:35 | 53.62901 | 10.00083 | 47 ft | 9 kts | 212° |
| 2026-05-07 13:35 | 53.62855 | 10.00021 | 48 ft | 8 kts | 222° |
| 2026-05-07 13:35 | 53.62830 | 9.99988 | 48 ft | 3 kts | 212° |
| 2026-05-07 13:36 | 53.62819 | 9.99977 | 48 ft | 0 kts | 211° |
| 2026-05-07 13:36 | 53.62801 | 9.99959 | 46 ft | 7 kts | 209° |
| 2026-05-07 13:36 | 53.62714 | 9.99879 | 44 ft | 19 kts | 208° |
| 2026-05-07 13:36 | 53.62634 | 9.99717 | 47 ft | 18 kts | 259° |
| 2026-05-07 13:37 | 53.62615 | 9.99560 | 47 ft | 14 kts | 259° |
| 2026-05-07 13:37 | 53.62596 | 9.99390 | 47 ft | 15 kts | 259° |
| 2026-05-07 13:37 | 53.62575 | 9.99203 | 45 ft | 17 kts | 259° |
| 2026-05-07 13:37 | 53.62552 | 9.98997 | 47 ft | 19 kts | 259° |
| 2026-05-07 13:38 | 53.62526 | 9.98771 | 47 ft | 20 kts | 259° |
| 2026-05-07 13:38 | 53.62498 | 9.98528 | 47 ft | 22 kts | 259° |
| 2026-05-07 13:38 | 53.62468 | 9.98265 | 47 ft | 24 kts | 258° |
| 2026-05-07 13:38 | 53.62392 | 9.98014 | 47 ft | 25 kts | 230° |
| 2026-05-07 13:39 | 53.62275 | 9.97778 | 47 ft | 27 kts | 230° |
| 2026-05-07 13:39 | 53.62153 | 9.97531 | 47 ft | 29 kts | 230° |
| 2026-05-07 13:39 | 53.62021 | 9.97265 | 47 ft | 30 kts | 230° |
| 2026-05-07 13:39 | 53.61892 | 9.97001 | 47 ft | 29 kts | 230° |
| 2026-05-07 13:40 | 53.61782 | 9.96778 | 47 ft | 20 kts | 230° |
| 2026-05-07 13:40 | 53.61710 | 9.96633 | 47 ft | 16 kts | 230° |
| 2026-05-07 13:40 | 53.61673 | 9.96466 | 45 ft | 17 kts | 292° |
| 2026-05-07 13:40 | 53.61779 | 9.96420 | 46 ft | 18 kts | 7° |
| 2026-05-07 13:41 | 53.61897 | 9.96514 | 44 ft | 22 kts | 49° |
| 2026-05-07 13:41 | 53.62039 | 9.96802 | 41 ft | 53 kts | 50° |
| 2026-05-07 13:41 | 53.62407 | 9.97545 | 40 ft | 109 kts | 50° |
| 2026-05-07 13:41 | 53.62988 | 9.98722 | 47 ft | 150 kts | 50° |
| 2026-05-07 13:42 | 53.63692 | 10.00151 | 465 ft | 161 kts | 50° |
| 2026-05-07 13:42 | 53.64422 | 10.01635 | 1111 ft | 166 kts | 50° |
| 2026-05-07 13:42 | 53.65157 | 10.03136 | 1739 ft | 169 kts | 51° |
| 2026-05-07 13:42 | 53.65926 | 10.04703 | 2177 ft | 182 kts | 51° |
| 2026-05-07 13:43 | 53.66777 | 10.06435 | 2501 ft | 200 kts | 51° |
| 2026-05-07 13:43 | 53.67687 | 10.08283 | 2999 ft | 209 kts | 52° |
| 2026-05-07 13:43 | 53.68798 | 10.09893 | 3731 ft | 212 kts | 26° |
| 2026-05-07 13:43 | 53.70257 | 10.10359 | 4485 ft | 220 kts | 356° |
| 2026-05-07 13:44 | 53.71715 | 10.09408 | 5030 ft | 239 kts | 323° |
| 2026-05-07 13:44 | 53.72700 | 10.07007 | 5475 ft | 263 kts | 290° |
| 2026-05-07 13:44 | 53.73257 | 10.03977 | 6141 ft | 275 kts | 289° |
| 2026-05-07 13:44 | 53.73701 | 10.00822 | 6878 ft | 284 kts | 275° |
| 2026-05-07 13:45 | 53.73401 | 9.97511 | 7714 ft | 288 kts | 253° |
| 2026-05-07 13:45 | 53.72756 | 9.94305 | 8632 ft | 288 kts | 250° |
| 2026-05-07 13:45 | 53.72048 | 9.91130 | 9514 ft | 289 kts | 249° |
| 2026-05-07 13:45 | 53.71335 | 9.87942 | 10335 ft | 291 kts | 250° |
| 2026-05-07 13:46 | 53.70615 | 9.84626 | 10636 ft | 312 kts | 250° |
| 2026-05-07 13:46 | 53.69663 | 9.81196 | 10779 ft | 335 kts | 234° |
| 2026-05-07 13:46 | 53.67921 | 9.78456 | 10996 ft | 352 kts | 210° |
| 2026-05-07 13:46 | 53.65596 | 9.77050 | 11500 ft | 359 kts | 193° |
| 2026-05-07 13:47 | 53.63155 | 9.76070 | 12131 ft | 362 kts | 193° |
| 2026-05-07 13:47 | 53.60685 | 9.75100 | 12783 ft | 366 kts | 193° |
| 2026-05-07 13:47 | 53.58229 | 9.74138 | 13430 ft | 369 kts | 193° |
| 2026-05-07 13:47 | 53.55716 | 9.73152 | 14059 ft | 372 kts | 193° |
| 2026-05-07 13:48 | 53.53174 | 9.72156 | 14624 ft | 375 kts | 193° |
| 2026-05-07 13:48 | 53.50619 | 9.71153 | 15174 ft | 378 kts | 194° |
| 2026-05-07 13:48 | 53.48048 | 9.70142 | 15724 ft | 381 kts | 194° |
| 2026-05-07 13:48 | 53.45461 | 9.69126 | 16267 ft | 384 kts | 194° |
| 2026-05-07 13:49 | 53.42885 | 9.68114 | 16815 ft | 386 kts | 194° |
| 2026-05-07 13:49 | 53.40253 | 9.67082 | 17374 ft | 389 kts | 194° |
| 2026-05-07 13:49 | 53.37606 | 9.66044 | 17929 ft | 392 kts | 194° |
| 2026-05-07 13:49 | 53.34937 | 9.64999 | 18467 ft | 395 kts | 194° |
| 2026-05-07 13:50 | 53.32250 | 9.63950 | 18964 ft | 398 kts | 194° |
| 2026-05-07 13:50 | 53.29543 | 9.62895 | 19478 ft | 400 kts | 194° |
| 2026-05-07 13:50 | 53.26823 | 9.61832 | 19993 ft | 402 kts | 194° |
| 2026-05-07 13:50 | 53.24089 | 9.60766 | 20500 ft | 404 kts | 194° |
| 2026-05-07 13:51 | 53.21372 | 9.59712 | 20973 ft | 406 kts | 194° |
| 2026-05-07 13:51 | 53.18603 | 9.58640 | 21432 ft | 409 kts | 194° |
| 2026-05-07 13:51 | 53.15826 | 9.57561 | 21885 ft | 411 kts | 194° |
| 2026-05-07 13:51 | 53.13026 | 9.56477 | 22332 ft | 413 kts | 194° |
| 2026-05-07 13:52 | 53.10210 | 9.55392 | 22775 ft | 416 kts | 194° |
| 2026-05-07 13:52 | 53.07379 | 9.54304 | 23205 ft | 418 kts | 194° |
| 2026-05-07 13:52 | 53.04568 | 9.53225 | 23620 ft | 420 kts | 194° |
| 2026-05-07 13:52 | 53.01705 | 9.52129 | 23966 ft | 423 kts | 194° |
| 2026-05-07 13:53 | 52.98831 | 9.51027 | 24301 ft | 425 kts | 194° |
| 2026-05-07 13:53 | 52.95937 | 9.49912 | 24637 ft | 427 kts | 194° |
| 2026-05-07 13:53 | 52.93035 | 9.48788 | 24968 ft | 429 kts | 194° |
| 2026-05-07 13:53 | 52.90114 | 9.47662 | 25304 ft | 432 kts | 194° |
| 2026-05-07 13:54 | 52.87177 | 9.46540 | 25640 ft | 434 kts | 194° |
| 2026-05-07 13:54 | 52.84226 | 9.45420 | 25981 ft | 436 kts | 193° |
| 2026-05-07 13:54 | 52.81258 | 9.44295 | 26322 ft | 438 kts | 194° |
| 2026-05-07 13:54 | 52.78276 | 9.43163 | 26655 ft | 441 kts | 193° |
| 2026-05-07 13:55 | 52.75282 | 9.42023 | 27014 ft | 442 kts | 193° |
| 2026-05-07 13:55 | 52.72285 | 9.40885 | 27499 ft | 441 kts | 194° |
| 2026-05-07 13:55 | 52.69301 | 9.39755 | 27970 ft | 440 kts | 193° |
| 2026-05-07 13:55 | 52.66316 | 9.38626 | 28437 ft | 439 kts | 193° |
| 2026-05-07 13:56 | 52.63374 | 9.37515 | 28895 ft | 438 kts | 193° |
| 2026-05-07 13:56 | 52.60385 | 9.36470 | 29361 ft | 438 kts | 191° |
| 2026-05-07 13:56 | 52.57377 | 9.35591 | 29826 ft | 437 kts | 189° |
| 2026-05-07 13:56 | 52.54361 | 9.34827 | 30274 ft | 437 kts | 188° |
| 2026-05-07 13:57 | 52.51345 | 9.34118 | 30666 ft | 437 kts | 188° |
| 2026-05-07 13:57 | 52.48373 | 9.33424 | 31034 ft | 437 kts | 188° |
| 2026-05-07 13:57 | 52.45362 | 9.32697 | 31411 ft | 437 kts | 189° |
| 2026-05-07 13:57 | 52.42352 | 9.31942 | 31792 ft | 437 kts | 189° |
| 2026-05-07 13:58 | 52.39347 | 9.31167 | 32177 ft | 437 kts | 189° |
| 2026-05-07 13:58 | 52.36345 | 9.30378 | 32559 ft | 437 kts | 189° |
| 2026-05-07 13:58 | 52.33337 | 9.29581 | 32945 ft | 437 kts | 189° |
| 2026-05-07 13:58 | 52.30324 | 9.28785 | 33334 ft | 438 kts | 189° |
| 2026-05-07 13:59 | 52.27311 | 9.27994 | 33664 ft | 438 kts | 189° |
| 2026-05-07 13:59 | 52.24326 | 9.27213 | 33943 ft | 439 kts | 189° |
| 2026-05-07 13:59 | 52.21304 | 9.26471 | 34197 ft | 439 kts | 188° |
| 2026-05-07 13:59 | 52.18271 | 9.25858 | 34430 ft | 438 kts | 187° |
| 2026-05-07 14:00 | 52.15237 | 9.25333 | 34665 ft | 437 kts | 186° |
| 2026-05-07 14:00 | 52.12202 | 9.24842 | 34901 ft | 436 kts | 186° |
| 2026-05-07 14:00 | 52.09183 | 9.24350 | 35139 ft | 435 kts | 186° |
| 2026-05-07 14:00 | 52.06168 | 9.23843 | 35381 ft | 434 kts | 186° |
| 2026-05-07 14:01 | 52.03203 | 9.23278 | 35616 ft | 433 kts | 188° |
| 2026-05-07 14:01 | 52.00220 | 9.22564 | 35862 ft | 432 kts | 190° |
| 2026-05-07 14:01 | 51.97243 | 9.21753 | 36035 ft | 432 kts | 191° |
| 2026-05-07 14:02 | 51.91241 | 9.20036 | 36075 ft | 443 kts | 191° |
| 2026-05-07 14:02 | 51.85124 | 9.18413 | 36073 ft | 446 kts | 189° |
| 2026-05-07 14:03 | 51.79003 | 9.17108 | 36073 ft | 447 kts | 188° |
| 2026-05-07 14:03 | 51.72825 | 9.15877 | 36069 ft | 447 kts | 188° |
| 2026-05-07 14:04 | 51.66660 | 9.14582 | 36066 ft | 447 kts | 188° |
| 2026-05-07 14:04 | 51.60490 | 9.13233 | 36066 ft | 447 kts | 188° |
| 2026-05-07 14:05 | 51.54323 | 9.11895 | 36066 ft | 447 kts | 188° |
| 2026-05-07 14:05 | 51.48153 | 9.10458 | 36066 ft | 447 kts | 191° |
| 2026-05-07 14:06 | 51.42056 | 9.08419 | 36067 ft | 447 kts | 194° |
| 2026-05-07 14:06 | 51.36018 | 9.06173 | 36070 ft | 447 kts | 194° |
| 2026-05-07 14:07 | 51.29922 | 9.04099 | 36072 ft | 447 kts | 191° |
| 2026-05-07 14:07 | 51.23784 | 9.02753 | 36073 ft | 448 kts | 187° |
| 2026-05-07 14:08 | 51.17569 | 9.01736 | 36064 ft | 448 kts | 187° |
| 2026-05-07 14:08 | 51.11364 | 9.00634 | 36067 ft | 448 kts | 188° |
| 2026-05-07 14:09 | 51.06207 | 8.99602 | 36065 ft | 448 kts | 188° |
| 2026-05-07 14:09 | 50.99007 | 8.98125 | 36062 ft | 449 kts | 188° |
| 2026-05-07 14:10 | 50.93811 | 8.97086 | 36063 ft | 449 kts | 188° |
| 2026-05-07 14:10 | 50.87610 | 8.95866 | 36064 ft | 449 kts | 188° |
| 2026-05-07 14:11 | 50.81437 | 8.94657 | 36062 ft | 449 kts | 188° |
| 2026-05-07 14:11 | 50.75223 | 8.93440 | 36064 ft | 449 kts | 188° |
| 2026-05-07 14:12 | 50.69008 | 8.92227 | 36064 ft | 449 kts | 188° |
| 2026-05-07 14:12 | 50.62792 | 8.91006 | 36061 ft | 450 kts | 188° |
| 2026-05-07 14:13 | 50.56613 | 8.89803 | 36066 ft | 450 kts | 188° |
| 2026-05-07 14:13 | 50.50390 | 8.88605 | 36065 ft | 450 kts | 188° |
| 2026-05-07 14:14 | 50.44169 | 8.87405 | 36067 ft | 450 kts | 188° |
| 2026-05-07 14:14 | 50.37951 | 8.86207 | 36068 ft | 450 kts | 188° |
| 2026-05-07 14:15 | 50.31737 | 8.85014 | 36064 ft | 450 kts | 188° |
| 2026-05-07 14:15 | 50.25557 | 8.83825 | 36063 ft | 450 kts | 188° |
| 2026-05-07 14:16 | 50.19341 | 8.82638 | 36065 ft | 450 kts | 188° |
| 2026-05-07 14:16 | 50.13109 | 8.81453 | 36066 ft | 450 kts | 188° |
| 2026-05-07 14:17 | 50.06920 | 8.80267 | 36069 ft | 450 kts | 188° |
| 2026-05-07 14:17 | 50.00711 | 8.79036 | 36068 ft | 449 kts | 189° |
| 2026-05-07 14:18 | 49.94510 | 8.77724 | 36067 ft | 449 kts | 189° |
| 2026-05-07 14:18 | 49.88300 | 8.76412 | 36067 ft | 450 kts | 189° |
| 2026-05-07 14:19 | 49.82135 | 8.75135 | 36067 ft | 450 kts | 189° |
| 2026-05-07 14:19 | 49.75928 | 8.73853 | 36064 ft | 449 kts | 189° |
| 2026-05-07 14:20 | 49.69721 | 8.72582 | 36063 ft | 449 kts | 189° |
| 2026-05-07 14:20 | 49.63505 | 8.71329 | 36066 ft | 450 kts | 189° |
| 2026-05-07 14:21 | 49.57303 | 8.70085 | 36067 ft | 449 kts | 189° |
| 2026-05-07 14:21 | 49.51137 | 8.68848 | 36066 ft | 450 kts | 189° |
| 2026-05-07 14:22 | 49.44936 | 8.67592 | 36067 ft | 450 kts | 189° |
| 2026-05-07 14:22 | 49.38721 | 8.66329 | 36066 ft | 449 kts | 189° |
| 2026-05-07 14:23 | 49.32510 | 8.65065 | 36065 ft | 449 kts | 189° |
| 2026-05-07 14:23 | 49.26314 | 8.63751 | 36065 ft | 448 kts | 195° |
| 2026-05-07 14:24 | 49.20539 | 8.60479 | 36055 ft | 445 kts | 204° |
| 2026-05-07 14:24 | 49.14807 | 8.56857 | 36055 ft | 445 kts | 204° |
| 2026-05-07 14:25 | 49.09114 | 8.53132 | 36053 ft | 443 kts | 211° |
| 2026-05-07 14:25 | 49.03793 | 8.48382 | 36053 ft | 443 kts | 212° |
| 2026-05-07 14:26 | 48.98271 | 8.44354 | 36056 ft | 444 kts | 204° |
| 2026-05-07 14:26 | 48.92526 | 8.40823 | 36063 ft | 444 kts | 204° |
| 2026-05-07 14:27 | 48.86783 | 8.37308 | 36057 ft | 444 kts | 204° |
| 2026-05-07 14:27 | 48.81039 | 8.33811 | 36069 ft | 444 kts | 204° |
| 2026-05-07 14:28 | 48.75286 | 8.30315 | 36031 ft | 447 kts | 204° |
| 2026-05-07 14:28 | 48.69479 | 8.26798 | 36027 ft | 450 kts | 204° |
| 2026-05-07 14:29 | 48.63678 | 8.23298 | 36028 ft | 452 kts | 204° |
| 2026-05-07 14:29 | 48.57823 | 8.19762 | 36033 ft | 452 kts | 204° |
| 2026-05-07 14:30 | 48.51968 | 8.16227 | 36039 ft | 453 kts | 204° |
| 2026-05-07 14:30 | 48.46141 | 8.12732 | 36048 ft | 453 kts | 204° |
| 2026-05-07 14:31 | 48.40281 | 8.09224 | 36059 ft | 453 kts | 204° |
| 2026-05-07 14:31 | 48.34424 | 8.05731 | 36064 ft | 453 kts | 204° |
| 2026-05-07 14:32 | 48.28557 | 8.02233 | 36064 ft | 452 kts | 204° |
| 2026-05-07 14:32 | 48.22701 | 7.98743 | 36066 ft | 452 kts | 204° |
| 2026-05-07 14:33 | 48.16845 | 7.95267 | 36064 ft | 452 kts | 204° |
| 2026-05-07 14:33 | 48.11028 | 7.91830 | 36065 ft | 452 kts | 204° |
| 2026-05-07 14:34 | 48.05172 | 7.88367 | 36057 ft | 451 kts | 204° |
| 2026-05-07 14:34 | 47.99319 | 7.84939 | 36050 ft | 451 kts | 204° |
| 2026-05-07 14:35 | 47.93478 | 7.81509 | 36049 ft | 451 kts | 204° |
| 2026-05-07 14:35 | 47.87646 | 7.78081 | 36043 ft | 450 kts | 204° |
| 2026-05-07 14:36 | 47.81806 | 7.74672 | 36039 ft | 450 kts | 204° |
| 2026-05-07 14:36 | 47.75975 | 7.71269 | 36039 ft | 450 kts | 204° |
| 2026-05-07 14:37 | 47.70182 | 7.67890 | 36040 ft | 450 kts | 204° |
| 2026-05-07 14:37 | 47.61418 | 7.62815 | 36041 ft | 449 kts | 204° |
| 2026-05-07 14:38 | 47.55619 | 7.59466 | 36038 ft | 449 kts | 204° |
| 2026-05-07 14:38 | 47.49838 | 7.55933 | 36037 ft | 445 kts | 212° |
| 2026-05-07 14:39 | 47.44460 | 7.51512 | 36036 ft | 445 kts | 212° |
| 2026-05-07 14:39 | 47.39033 | 7.47042 | 36033 ft | 444 kts | 212° |
| 2026-05-07 14:40 | 47.33656 | 7.42629 | 36037 ft | 444 kts | 212° |
| 2026-05-07 14:40 | 47.28236 | 7.38199 | 36040 ft | 444 kts | 212° |
| 2026-05-07 14:41 | 47.22832 | 7.33796 | 36039 ft | 443 kts | 212° |
| 2026-05-07 14:41 | 47.17476 | 7.29432 | 36040 ft | 443 kts | 212° |
| 2026-05-07 14:42 | 47.12084 | 7.25044 | 36039 ft | 442 kts | 212° |
| 2026-05-07 14:42 | 47.06692 | 7.20656 | 36040 ft | 442 kts | 212° |
| 2026-05-07 14:43 | 47.01306 | 7.16295 | 36041 ft | 442 kts | 212° |
| 2026-05-07 14:43 | 46.95909 | 7.11941 | 36059 ft | 442 kts | 212° |
| 2026-05-07 14:44 | 46.90560 | 7.07636 | 36049 ft | 442 kts | 212° |
| 2026-05-07 14:44 | 46.85144 | 7.03279 | 36053 ft | 441 kts | 212° |
| 2026-05-07 14:45 | 46.79804 | 6.98990 | 36046 ft | 441 kts | 212° |
| 2026-05-07 14:45 | 46.74275 | 6.95053 | 36038 ft | 443 kts | 206° |
| 2026-05-07 14:46 | 46.68558 | 6.91677 | 36035 ft | 443 kts | 205° |
| 2026-05-07 14:46 | 46.62833 | 6.88368 | 36037 ft | 442 kts | 205° |
| 2026-05-07 14:47 | 46.57158 | 6.85076 | 36028 ft | 442 kts | 206° |
| 2026-05-07 14:47 | 46.51452 | 6.81735 | 36020 ft | 441 kts | 206° |
| 2026-05-07 14:48 | 46.45760 | 6.78409 | 36014 ft | 440 kts | 206° |
| 2026-05-07 14:48 | 46.40067 | 6.75115 | 36015 ft | 440 kts | 206° |
| 2026-05-07 14:49 | 46.35334 | 6.72382 | 36018 ft | 440 kts | 206° |
| 2026-05-07 14:49 | 46.29648 | 6.69087 | 36013 ft | 439 kts | 206° |
| 2026-05-07 14:50 | 46.23998 | 6.65827 | 36014 ft | 439 kts | 206° |
| 2026-05-07 14:50 | 46.18317 | 6.62551 | 36010 ft | 438 kts | 206° |
| 2026-05-07 14:51 | 46.12642 | 6.59287 | 36005 ft | 438 kts | 206° |
| 2026-05-07 14:51 | 46.07018 | 6.56066 | 36005 ft | 438 kts | 206° |
| 2026-05-07 14:52 | 46.01355 | 6.52826 | 36001 ft | 438 kts | 206° |
| 2026-05-07 14:52 | 45.95681 | 6.49588 | 36003 ft | 438 kts | 206° |
| 2026-05-07 14:53 | 45.90012 | 6.46367 | 36008 ft | 438 kts | 206° |
| 2026-05-07 14:53 | 45.84373 | 6.43168 | 36008 ft | 437 kts | 206° |
| 2026-05-07 14:54 | 45.78716 | 6.39960 | 36002 ft | 436 kts | 206° |
| 2026-05-07 14:54 | 45.73066 | 6.36749 | 36000 ft | 435 kts | 206° |
| 2026-05-07 14:55 | 45.67459 | 6.33572 | 36003 ft | 435 kts | 206° |
| 2026-05-07 14:55 | 45.61820 | 6.30405 | 35989 ft | 435 kts | 205° |
| 2026-05-07 14:56 | 45.56187 | 6.27251 | 35994 ft | 434 kts | 205° |
| 2026-05-07 14:56 | 45.50560 | 6.24091 | 35993 ft | 434 kts | 205° |
| 2026-05-07 14:57 | 45.44930 | 6.20943 | 35990 ft | 434 kts | 205° |
| 2026-05-07 14:57 | 45.39345 | 6.17829 | 35992 ft | 433 kts | 205° |
| 2026-05-07 14:58 | 45.33735 | 6.14690 | 35989 ft | 432 kts | 205° |
| 2026-05-07 14:58 | 45.28163 | 6.11586 | 35990 ft | 432 kts | 205° |
| 2026-05-07 14:59 | 45.22560 | 6.08477 | 35992 ft | 431 kts | 205° |
| 2026-05-07 14:59 | 45.16967 | 6.05381 | 35993 ft | 431 kts | 205° |
| 2026-05-07 15:00 | 45.11378 | 6.02292 | 35986 ft | 430 kts | 205° |
| 2026-05-07 15:00 | 45.05843 | 5.99247 | 36316 ft | 429 kts | 205° |
| 2026-05-07 15:01 | 45.03056 | 5.97715 | 36568 ft | 429 kts | 205° |
| 2026-05-07 15:01 | 45.00271 | 5.96181 | 36821 ft | 428 kts | 205° |
| 2026-05-07 15:01 | 44.97494 | 5.94653 | 36954 ft | 427 kts | 204° |
| 2026-05-07 15:01 | 44.94719 | 5.93129 | 36976 ft | 428 kts | 204° |
| 2026-05-07 15:02 | 44.89144 | 5.90078 | 36966 ft | 429 kts | 204° |
| 2026-05-07 15:02 | 44.83603 | 5.87058 | 36969 ft | 428 kts | 204° |
| 2026-05-07 15:03 | 44.78035 | 5.84021 | 36966 ft | 428 kts | 204° |
| 2026-05-07 15:03 | 44.72478 | 5.80985 | 36965 ft | 427 kts | 204° |
| 2026-05-07 15:04 | 44.66966 | 5.77979 | 36959 ft | 427 kts | 204° |
| 2026-05-07 15:04 | 44.61415 | 5.74974 | 36961 ft | 426 kts | 204° |
| 2026-05-07 15:05 | 44.55865 | 5.71971 | 36964 ft | 426 kts | 204° |
| 2026-05-07 15:05 | 44.50331 | 5.68976 | 36967 ft | 426 kts | 204° |
| 2026-05-07 15:06 | 44.44787 | 5.65993 | 36968 ft | 426 kts | 204° |
| 2026-05-07 15:06 | 44.39295 | 5.63043 | 36973 ft | 426 kts | 204° |
| 2026-05-07 15:07 | 44.33768 | 5.60054 | 36971 ft | 425 kts | 205° |
| 2026-05-07 15:07 | 44.28308 | 5.56898 | 36976 ft | 424 kts | 207° |
| 2026-05-07 15:08 | 44.22984 | 5.53356 | 36983 ft | 423 kts | 209° |
| 2026-05-07 15:08 | 44.17698 | 5.49750 | 36989 ft | 423 kts | 209° |
| 2026-05-07 15:09 | 44.12396 | 5.46226 | 36984 ft | 422 kts | 208° |
| 2026-05-07 15:09 | 44.07062 | 5.42753 | 36983 ft | 422 kts | 208° |
| 2026-05-07 15:10 | 44.01764 | 5.39312 | 36989 ft | 422 kts | 208° |
| 2026-05-07 15:10 | 43.96446 | 5.35853 | 36988 ft | 422 kts | 208° |
| 2026-05-07 15:11 | 43.91123 | 5.32386 | 36981 ft | 421 kts | 208° |
| 2026-05-07 15:11 | 43.85857 | 5.28958 | 36980 ft | 420 kts | 208° |
| 2026-05-07 15:12 | 43.80557 | 5.25523 | 36988 ft | 420 kts | 208° |
| 2026-05-07 15:12 | 43.75257 | 5.22106 | 36991 ft | 419 kts | 208° |
| 2026-05-07 15:13 | 43.70001 | 5.18723 | 36992 ft | 418 kts | 208° |
| 2026-05-07 15:13 | 43.64725 | 5.15323 | 36995 ft | 417 kts | 208° |
| 2026-05-07 15:14 | 43.59467 | 5.11940 | 36993 ft | 417 kts | 208° |
| 2026-05-07 15:14 | 43.54206 | 5.08558 | 36995 ft | 416 kts | 208° |
| 2026-05-07 15:15 | 43.48992 | 5.05217 | 36994 ft | 415 kts | 208° |
| 2026-05-07 15:15 | 43.43743 | 5.01863 | 36997 ft | 414 kts | 208° |
| 2026-05-07 15:16 | 43.38510 | 4.98522 | 36994 ft | 414 kts | 208° |
| 2026-05-07 15:16 | 43.33316 | 4.95217 | 36998 ft | 413 kts | 208° |
| 2026-05-07 15:17 | 43.28104 | 4.91902 | 37001 ft | 412 kts | 208° |
| 2026-05-07 15:17 | 43.22898 | 4.88607 | 37003 ft | 412 kts | 208° |
| 2026-05-07 15:18 | 43.17692 | 4.85311 | 37007 ft | 411 kts | 208° |
| 2026-05-07 15:18 | 43.12495 | 4.82022 | 37006 ft | 410 kts | 208° |
| 2026-05-07 15:19 | 43.07338 | 4.78769 | 37005 ft | 409 kts | 208° |
| 2026-05-07 15:19 | 43.02238 | 4.75336 | 37005 ft | 407 kts | 212° |
| 2026-05-07 15:20 | 42.97344 | 4.71557 | 37002 ft | 405 kts | 213° |
| 2026-05-07 15:20 | 42.92458 | 4.67710 | 37001 ft | 405 kts | 213° |
| 2026-05-07 15:21 | 42.87537 | 4.63952 | 37000 ft | 404 kts | 212° |
| 2026-05-07 15:21 | 42.82605 | 4.60251 | 37001 ft | 404 kts | 212° |
| 2026-05-07 15:22 | 42.77715 | 4.56575 | 37000 ft | 403 kts | 212° |
| 2026-05-07 15:22 | 42.72801 | 4.52875 | 36999 ft | 403 kts | 212° |
| 2026-05-07 15:23 | 42.67884 | 4.49187 | 36999 ft | 402 kts | 212° |
| 2026-05-07 15:23 | 42.63012 | 4.45546 | 37000 ft | 402 kts | 212° |
| 2026-05-07 15:24 | 42.58112 | 4.41883 | 36998 ft | 402 kts | 212° |
| 2026-05-07 15:24 | 42.53209 | 4.38214 | 36998 ft | 401 kts | 212° |
| 2026-05-07 15:25 | 42.48305 | 4.34558 | 37000 ft | 401 kts | 212° |
| 2026-05-07 15:25 | 42.43433 | 4.30941 | 36999 ft | 401 kts | 211° |
| 2026-05-07 15:26 | 42.38543 | 4.27313 | 36994 ft | 401 kts | 211° |
| 2026-05-07 15:26 | 42.33658 | 4.23686 | 36993 ft | 400 kts | 211° |
| 2026-05-07 15:27 | 42.28768 | 4.20058 | 36991 ft | 400 kts | 211° |
| 2026-05-07 15:27 | 42.23878 | 4.16443 | 36990 ft | 400 kts | 211° |
| 2026-05-07 15:28 | 42.19019 | 4.12872 | 36989 ft | 400 kts | 211° |
| 2026-05-07 15:28 | 42.14128 | 4.09279 | 36990 ft | 400 kts | 211° |
| 2026-05-07 15:29 | 42.09238 | 4.05687 | 36987 ft | 400 kts | 211° |
| 2026-05-07 15:29 | 42.04347 | 4.02100 | 36985 ft | 400 kts | 211° |
| 2026-05-07 15:30 | 41.99481 | 3.98540 | 36987 ft | 400 kts | 211° |
| 2026-05-07 15:30 | 41.94588 | 3.94971 | 36984 ft | 400 kts | 210° |
| 2026-05-07 15:31 | 41.89286 | 3.92621 | 36982 ft | 406 kts | 194° |
| 2026-05-07 15:31 | 41.83733 | 3.91358 | 36985 ft | 406 kts | 194° |
| 2026-05-07 15:32 | 41.78157 | 3.90074 | 36984 ft | 406 kts | 194° |
| 2026-05-07 15:32 | 41.73526 | 3.89005 | 36986 ft | 406 kts | 194° |
| 2026-05-07 15:33 | 41.67940 | 3.87720 | 36981 ft | 406 kts | 194° |
| 2026-05-07 15:33 | 41.62363 | 3.86437 | 36985 ft | 406 kts | 194° |
| 2026-05-07 15:34 | 41.56825 | 3.85164 | 36988 ft | 406 kts | 194° |
| 2026-05-07 15:34 | 41.51251 | 3.83882 | 36986 ft | 405 kts | 194° |
| 2026-05-07 15:35 | 41.45684 | 3.82605 | 36985 ft | 405 kts | 194° |
| 2026-05-07 15:35 | 41.42892 | 3.81966 | 36595 ft | 408 kts | 194° |
| 2026-05-07 15:35 | 41.40096 | 3.81329 | 36011 ft | 406 kts | 194° |
| 2026-05-07 15:36 | 41.37321 | 3.80700 | 35456 ft | 403 kts | 194° |
| 2026-05-07 15:36 | 41.34565 | 3.80076 | 34915 ft | 400 kts | 194° |
| 2026-05-07 15:36 | 41.31865 | 3.79461 | 34392 ft | 397 kts | 194° |
| 2026-05-07 15:36 | 41.29142 | 3.78841 | 33852 ft | 394 kts | 194° |
| 2026-05-07 15:37 | 41.26453 | 3.78229 | 33249 ft | 390 kts | 194° |
| 2026-05-07 15:37 | 41.23783 | 3.77622 | 32657 ft | 388 kts | 194° |
| 2026-05-07 15:37 | 41.21118 | 3.77013 | 32082 ft | 389 kts | 193° |
| 2026-05-07 15:37 | 41.18440 | 3.76404 | 31533 ft | 392 kts | 193° |
| 2026-05-07 15:38 | 41.15741 | 3.75733 | 31025 ft | 393 kts | 197° |
| 2026-05-07 15:38 | 41.13181 | 3.74597 | 30538 ft | 394 kts | 204° |
| 2026-05-07 15:38 | 41.10615 | 3.73261 | 30049 ft | 397 kts | 203° |
| 2026-05-07 15:38 | 41.08020 | 3.71916 | 29487 ft | 401 kts | 203° |
| 2026-05-07 15:39 | 41.05398 | 3.70564 | 28927 ft | 405 kts | 203° |
| 2026-05-07 15:39 | 41.02756 | 3.69209 | 28373 ft | 409 kts | 203° |
| 2026-05-07 15:39 | 41.00124 | 3.67860 | 27833 ft | 412 kts | 203° |
| 2026-05-07 15:39 | 40.97434 | 3.66480 | 27310 ft | 416 kts | 203° |
| 2026-05-07 15:40 | 40.94729 | 3.65094 | 26795 ft | 417 kts | 203° |
| 2026-05-07 15:40 | 40.92025 | 3.63711 | 26285 ft | 416 kts | 203° |
| 2026-05-07 15:40 | 40.89321 | 3.62328 | 25786 ft | 415 kts | 204° |
| 2026-05-07 15:40 | 40.86627 | 3.60949 | 25298 ft | 415 kts | 204° |
| 2026-05-07 15:41 | 40.83941 | 3.59574 | 24817 ft | 414 kts | 204° |
| 2026-05-07 15:41 | 40.81259 | 3.58204 | 24340 ft | 413 kts | 204° |
| 2026-05-07 15:41 | 40.78582 | 3.56834 | 23883 ft | 412 kts | 204° |
| 2026-05-07 15:41 | 40.75910 | 3.55466 | 23395 ft | 412 kts | 204° |
| 2026-05-07 15:42 | 40.73243 | 3.54104 | 22851 ft | 410 kts | 204° |
| 2026-05-07 15:42 | 40.70590 | 3.52751 | 22308 ft | 408 kts | 203° |
| 2026-05-07 15:42 | 40.67951 | 3.51410 | 21784 ft | 405 kts | 203° |
| 2026-05-07 15:42 | 40.65322 | 3.50074 | 21264 ft | 403 kts | 203° |
| 2026-05-07 15:43 | 40.62708 | 3.48744 | 20755 ft | 401 kts | 202° |
| 2026-05-07 15:43 | 40.60114 | 3.47424 | 20255 ft | 399 kts | 202° |
| 2026-05-07 15:43 | 40.57533 | 3.46110 | 19762 ft | 397 kts | 202° |
| 2026-05-07 15:43 | 40.54963 | 3.44805 | 19302 ft | 395 kts | 201° |
| 2026-05-07 15:44 | 40.52402 | 3.43509 | 18950 ft | 394 kts | 201° |
| 2026-05-07 15:44 | 40.49849 | 3.42217 | 18603 ft | 393 kts | 201° |
| 2026-05-07 15:44 | 40.47304 | 3.40930 | 18243 ft | 392 kts | 201° |
| 2026-05-07 15:44 | 40.44721 | 3.39818 | 17844 ft | 390 kts | 193° |
| 2026-05-07 15:45 | 40.42037 | 3.39379 | 17441 ft | 389 kts | 181° |
| 2026-05-07 15:45 | 40.39335 | 3.39497 | 17048 ft | 388 kts | 178° |
| 2026-05-07 15:45 | 40.36641 | 3.39655 | 16654 ft | 386 kts | 178° |
| 2026-05-07 15:45 | 40.33997 | 3.39807 | 16274 ft | 384 kts | 178° |
| 2026-05-07 15:46 | 40.28697 | 3.40114 | 15515 ft | 376 kts | 178° |
| 2026-05-07 15:46 | 40.26090 | 3.40263 | 15173 ft | 373 kts | 178° |
| 2026-05-07 15:46 | 40.23489 | 3.40410 | 14978 ft | 372 kts | 178° |
| 2026-05-07 15:47 | 40.20900 | 3.40555 | 14939 ft | 372 kts | 178° |
| 2026-05-07 15:47 | 40.18316 | 3.40699 | 14949 ft | 372 kts | 177° |
| 2026-05-07 15:47 | 40.15727 | 3.40844 | 14947 ft | 372 kts | 177° |
| 2026-05-07 15:47 | 40.13162 | 3.40987 | 14949 ft | 372 kts | 177° |
| 2026-05-07 15:48 | 40.10540 | 3.41134 | 14878 ft | 373 kts | 177° |
| 2026-05-07 15:48 | 40.07997 | 3.41278 | 14514 ft | 365 kts | 177° |
| 2026-05-07 15:48 | 40.05486 | 3.41420 | 14158 ft | 358 kts | 177° |
| 2026-05-07 15:48 | 40.03004 | 3.41560 | 13802 ft | 355 kts | 177° |
| 2026-05-07 15:49 | 40.00538 | 3.41698 | 13402 ft | 354 kts | 176° |
| 2026-05-07 15:49 | 39.98081 | 3.41839 | 13010 ft | 352 kts | 176° |
| 2026-05-07 15:49 | 39.95637 | 3.41979 | 12634 ft | 350 kts | 176° |
| 2026-05-07 15:49 | 39.93201 | 3.42118 | 12373 ft | 350 kts | 176° |
| 2026-05-07 15:50 | 39.90795 | 3.42254 | 12117 ft | 349 kts | 176° |
| 2026-05-07 15:50 | 39.88364 | 3.42390 | 11862 ft | 348 kts | 176° |
| 2026-05-07 15:50 | 39.85935 | 3.42526 | 11606 ft | 347 kts | 176° |
| 2026-05-07 15:50 | 39.83520 | 3.42660 | 11351 ft | 346 kts | 176° |
| 2026-05-07 15:51 | 39.81118 | 3.42794 | 11108 ft | 345 kts | 176° |
| 2026-05-07 15:51 | 39.78723 | 3.42926 | 10861 ft | 344 kts | 176° |
| 2026-05-07 15:51 | 39.76368 | 3.43059 | 10616 ft | 341 kts | 176° |
| 2026-05-07 15:51 | 39.74033 | 3.43187 | 10371 ft | 330 kts | 176° |
| 2026-05-07 15:52 | 39.71775 | 3.42972 | 10130 ft | 323 kts | 193° |
| 2026-05-07 15:52 | 39.69766 | 3.41712 | 9896 ft | 323 kts | 216° |
| 2026-05-07 15:52 | 39.68273 | 3.39536 | 9633 ft | 326 kts | 238° |
| 2026-05-07 15:52 | 39.67229 | 3.36916 | 9372 ft | 326 kts | 242° |
| 2026-05-07 15:53 | 39.66219 | 3.34279 | 9106 ft | 326 kts | 242° |
| 2026-05-07 15:53 | 39.65221 | 3.31649 | 8845 ft | 325 kts | 242° |
| 2026-05-07 15:53 | 39.64215 | 3.29010 | 8579 ft | 325 kts | 242° |
| 2026-05-07 15:53 | 39.63211 | 3.26394 | 8328 ft | 324 kts | 242° |
| 2026-05-07 15:54 | 39.62213 | 3.23807 | 8071 ft | 317 kts | 242° |
| 2026-05-07 15:54 | 39.61235 | 3.21277 | 7827 ft | 311 kts | 242° |
| 2026-05-07 15:54 | 39.60273 | 3.18793 | 7575 ft | 305 kts | 242° |
| 2026-05-07 15:54 | 39.59338 | 3.16383 | 7333 ft | 300 kts | 242° |
| 2026-05-07 15:55 | 39.58409 | 3.13987 | 7082 ft | 295 kts | 242° |
| 2026-05-07 15:55 | 39.57492 | 3.11621 | 6843 ft | 290 kts | 242° |
| 2026-05-07 15:55 | 39.56588 | 3.09294 | 6598 ft | 286 kts | 242° |
| 2026-05-07 15:55 | 39.55696 | 3.06997 | 6361 ft | 284 kts | 242° |
| 2026-05-07 15:56 | 39.54809 | 3.04716 | 6108 ft | 283 kts | 242° |
| 2026-05-07 15:56 | 39.53924 | 3.02440 | 5858 ft | 282 kts | 242° |
| 2026-05-07 15:56 | 39.53042 | 3.00173 | 5599 ft | 281 kts | 242° |
| 2026-05-07 15:56 | 39.52162 | 2.97911 | 5343 ft | 280 kts | 242° |
| 2026-05-07 15:57 | 39.51282 | 2.95652 | 5107 ft | 279 kts | 242° |
| 2026-05-07 15:57 | 39.50402 | 2.93404 | 4936 ft | 280 kts | 242° |
| 2026-05-07 15:57 | 39.49532 | 2.91185 | 4830 ft | 280 kts | 242° |
| 2026-05-07 15:57 | 39.48648 | 2.88927 | 4693 ft | 281 kts | 242° |
| 2026-05-07 15:58 | 39.47763 | 2.86669 | 4568 ft | 280 kts | 242° |
| 2026-05-07 15:58 | 39.46879 | 2.84419 | 4435 ft | 280 kts | 242° |
| 2026-05-07 15:58 | 39.45995 | 2.82166 | 4292 ft | 279 kts | 242° |
| 2026-05-07 15:58 | 39.45117 | 2.79922 | 4140 ft | 279 kts | 242° |
| 2026-05-07 15:59 | 39.44251 | 2.77707 | 3991 ft | 279 kts | 242° |
| 2026-05-07 15:59 | 39.43539 | 2.75378 | 3839 ft | 278 kts | 256° |
| 2026-05-07 15:59 | 39.43257 | 2.72903 | 3688 ft | 277 kts | 264° |
| 2026-05-07 15:59 | 39.43049 | 2.70424 | 3537 ft | 277 kts | 264° |
| 2026-05-07 16:00 | 39.42851 | 2.67943 | 3394 ft | 277 kts | 264° |
| 2026-05-07 16:00 | 39.42656 | 2.65479 | 3237 ft | 272 kts | 264° |
| 2026-05-07 16:00 | 39.42469 | 2.63081 | 3085 ft | 265 kts | 264° |
| 2026-05-07 16:00 | 39.42279 | 2.60738 | 2928 ft | 258 kts | 264° |
| 2026-05-07 16:01 | 39.42095 | 2.58455 | 2773 ft | 252 kts | 264° |
| 2026-05-07 16:01 | 39.41913 | 2.56231 | 2598 ft | 246 kts | 264° |
| 2026-05-07 16:01 | 39.41813 | 2.54061 | 2422 ft | 243 kts | 276° |
| 2026-05-07 16:01 | 39.42312 | 2.52012 | 2310 ft | 239 kts | 302° |
| 2026-05-07 16:02 | 39.43460 | 2.50627 | 2289 ft | 219 kts | 343° |
| 2026-05-07 16:02 | 39.44870 | 2.50618 | 2290 ft | 197 kts | 28° |
| 2026-05-07 16:02 | 39.45750 | 2.51819 | 2302 ft | 182 kts | 69° |
| 2026-05-07 16:02 | 39.46253 | 2.53306 | 2304 ft | 178 kts | 60° |
| 2026-05-07 16:03 | 39.46909 | 2.54666 | 2334 ft | 177 kts | 59° |
| 2026-05-07 16:03 | 39.47562 | 2.56018 | 2307 ft | 176 kts | 59° |
| 2026-05-07 16:03 | 39.48198 | 2.57349 | 2298 ft | 176 kts | 60° |
| 2026-05-07 16:03 | 39.48841 | 2.58699 | 2192 ft | 176 kts | 59° |
| 2026-05-07 16:04 | 39.49484 | 2.60050 | 2001 ft | 176 kts | 60° |
| 2026-05-07 16:04 | 39.50124 | 2.61395 | 1781 ft | 175 kts | 59° |
| 2026-05-07 16:04 | 39.50746 | 2.62704 | 1553 ft | 162 kts | 59° |
| 2026-05-07 16:04 | 39.51305 | 2.63881 | 1348 ft | 146 kts | 59° |
| 2026-05-07 16:05 | 39.51827 | 2.64993 | 1136 ft | 144 kts | 60° |
| 2026-05-07 16:05 | 39.52354 | 2.66114 | 957 ft | 147 kts | 59° |
| 2026-05-07 16:05 | 39.52888 | 2.67250 | 757 ft | 151 kts | 60° |
| 2026-05-07 16:05 | 39.53449 | 2.68399 | 583 ft | 149 kts | 59° |
| 2026-05-07 16:06 | 39.53989 | 2.69532 | 358 ft | 145 kts | 59° |
| 2026-05-07 16:06 | 39.54520 | 2.70653 | 149 ft | 148 kts | 61° |
| 2026-05-07 16:06 | 39.55048 | 2.71770 | 30 ft | 132 kts | 58° |
| 2026-05-07 16:06 | 39.55428 | 2.72570 | 30 ft | 73 kts | 58° |
| 2026-05-07 16:07 | 39.55659 | 2.73060 | 30 ft | 54 kts | 59° |
| 2026-05-07 16:07 | 39.55801 | 2.73377 | 30 ft | 37 kts | 55° |
| 2026-05-07 16:07 | 39.55944 | 2.73663 | 30 ft | 35 kts | 58° |
| 2026-05-07 16:07 | 39.55982 | 2.73842 | 30 ft | 16 kts | 143° |
| 2026-05-07 16:08 | 39.55877 | 2.73907 | 30 ft | 16 kts | 169° |
| 2026-05-07 16:08 | 39.55804 | 2.73816 | 30 ft | 15 kts | 238° |
| 2026-05-07 16:08 | 39.55748 | 2.73696 | 30 ft | 15 kts | 238° |
| 2026-05-07 16:08 | 39.55714 | 2.73624 | 30 ft | 6 kts | 238° |
| 2026-05-07 16:09 | 39.55697 | 2.73589 | 30 ft | 3 kts | 238° |
| 2026-05-07 16:09 | 39.55688 | 2.73570 | 30 ft | 3 kts | 238° |
| 2026-05-07 16:09 | 39.55659 | 2.73515 | 30 ft | 11 kts | 225° |
| 2026-05-07 16:09 | 39.55584 | 2.73531 | 30 ft | 14 kts | 149° |
| 2026-05-07 16:10 | 39.55507 | 2.73569 | 30 ft | 9 kts | 207° |
| 2026-05-07 16:10 | 39.55474 | 2.73506 | 30 ft | 8 kts | 238° |
| 2026-05-07 16:10 | 39.55435 | 2.73447 | 30 ft | 10 kts | 198° |
| 2026-05-07 16:10 | 39.55378 | 2.73480 | 30 ft | 8 kts | 149° |
| 2026-05-07 16:11 | 39.55330 | 2.73517 | 30 ft | 8 kts | 148° |
| 2026-05-07 16:11 | 39.55273 | 2.73562 | 30 ft | 12 kts | 148° |
| 2026-05-07 16:11 | 39.55203 | 2.73610 | 30 ft | 9 kts | 175° |
| 2026-05-07 16:11 | 39.55164 | 2.73561 | 30 ft | 8 kts | 239° |
| 2026-05-07 16:12 | 39.55146 | 2.73522 | 30 ft | 7 kts | 239° |
| 2026-05-07 16:12 | 39.55123 | 2.73472 | 30 ft | 6 kts | 239° |
| 2026-05-07 16:12 | 39.55101 | 2.73463 | 30 ft | 3 kts | 166° |
| 2026-05-07 16:12 | 39.55071 | 2.73475 | 30 ft | 5 kts | 163° |
| 2026-05-07 16:13 | 39.55037 | 2.73488 | 30 ft | 4 kts | 163° |
| 2026-05-07 16:13 | 39.55026 | 2.73492 | 30 ft | 0 kts | 164° |